createdAt,value
2017-11-09T00:00:20.858Z,10.20
2017-11-09T00:02:50.809Z,10.20
2017-11-09T00:05:23.585Z,10.20
2017-11-09T00:07:50.528Z,10.30
2017-11-09T00:10:17.388Z,10.20
2017-11-09T00:12:44.325Z,10.30
2017-11-09T00:15:11.213Z,10.20
2017-11-09T00:17:40.108Z,10.20
2017-11-09T00:20:07.792Z,10.30
2017-11-09T00:22:34.659Z,10.30
2017-11-09T00:25:01.598Z,10.30
2017-11-09T00:27:28.561Z,10.40
2017-11-09T00:29:55.513Z,10.40
2017-11-09T00:32:22.386Z,10.30
2017-11-09T00:34:49.252Z,10.30
2017-11-09T00:37:16.927Z,10.30
2017-11-09T00:39:43.881Z,10.30
2017-11-09T00:42:10.746Z,10.30
2017-11-09T00:44:37.673Z,10.30
2017-11-09T00:47:04.628Z,10.30
2017-11-09T00:49:31.497Z,10.20
2017-11-09T00:51:58.431Z,10.30
2017-11-09T00:54:25.299Z,10.30
2017-11-09T00:56:52.209Z,10.30
2017-11-09T00:59:19.146Z,10.30
2017-11-09T01:01:46.024Z,10.20
2017-11-09T01:04:12.968Z,10.30
2017-11-09T01:06:39.922Z,10.20
2017-11-09T01:09:06.800Z,10.20
2017-11-09T01:11:34.496Z,10.30
2017-11-09T01:14:01.425Z,10.30
2017-11-09T01:16:28.306Z,10.30
2017-11-09T01:18:55.286Z,10.30
2017-11-09T01:21:22.184Z,10.30
2017-11-09T01:23:49.061Z,10.30
2017-11-09T01:26:16.008Z,10.30
2017-11-09T01:28:42.867Z,10.30
2017-11-09T01:31:10.624Z,10.30
2017-11-09T01:33:37.958Z,10.30
2017-11-09T01:36:04.872Z,10.30
2017-11-09T01:38:31.888Z,10.30
2017-11-09T01:40:59.586Z,10.30
2017-11-09T01:43:26.465Z,10.30
2017-11-09T01:45:53.428Z,10.30
2017-11-09T01:48:20.356Z,10.20
2017-11-09T01:50:47.316Z,10.30
2017-11-09T01:53:14.308Z,10.30
2017-11-09T01:55:41.193Z,10.30
2017-11-09T01:58:08.163Z,10.30
2017-11-09T02:00:35.173Z,10.40
2017-11-09T02:03:02.222Z,10.30
2017-11-09T02:05:29.130Z,10.30
2017-11-09T02:07:56.046Z,10.30
2017-11-09T02:10:23.024Z,10.20
2017-11-09T02:12:49.897Z,10.20
2017-11-09T02:15:16.792Z,10.30
2017-11-09T02:17:43.773Z,10.30
2017-11-09T02:20:10.716Z,10.20
2017-11-09T02:22:37.812Z,10.20
2017-11-09T02:25:04.761Z,10.30
2017-11-09T02:27:31.839Z,10.30
2017-11-09T02:29:58.878Z,10.20
2017-11-09T02:32:25.946Z,10.30
2017-11-09T02:34:52.932Z,10.30
2017-11-09T02:37:19.910Z,10.30
2017-11-09T02:39:46.884Z,10.30
2017-11-09T02:42:14.550Z,10.30
2017-11-09T02:44:41.433Z,10.30
2017-11-09T02:47:08.427Z,10.30
2017-11-09T02:49:35.377Z,10.30
2017-11-09T02:52:02.365Z,10.30
2017-11-09T02:54:31.085Z,10.40
2017-11-09T02:56:58.109Z,10.40
2017-11-09T02:59:27.026Z,10.40
2017-11-09T03:01:53.994Z,10.40
2017-11-09T03:04:20.926Z,10.40
2017-11-09T03:06:47.816Z,10.30
2017-11-09T03:09:14.770Z,10.40
2017-11-09T03:11:41.707Z,10.40
2017-11-09T03:14:08.664Z,10.40
2017-11-09T03:16:35.533Z,10.30
2017-11-09T03:19:02.406Z,10.30
2017-11-09T03:21:29.348Z,10.30
2017-11-09T03:23:56.301Z,10.40
2017-11-09T03:26:23.247Z,10.40
2017-11-09T03:28:50.161Z,10.40
2017-11-09T03:31:17.038Z,10.40
2017-11-09T03:33:43.969Z,10.30
2017-11-09T03:36:10.869Z,10.40
2017-11-09T03:38:37.753Z,10.40
2017-11-09T03:41:04.689Z,10.40
2017-11-09T03:43:31.651Z,10.40
2017-11-09T03:45:58.718Z,10.40
2017-11-09T03:48:25.629Z,10.30
2017-11-09T03:50:52.570Z,10.30
2017-11-09T03:53:19.535Z,10.30
2017-11-09T03:55:46.401Z,10.30
2017-11-09T03:58:13.270Z,10.30
2017-11-09T04:00:40.203Z,10.30
2017-11-09T04:03:07.808Z,10.30
2017-11-09T04:05:34.794Z,10.30
2017-11-09T04:08:01.763Z,10.30
2017-11-09T04:10:29.452Z,10.20
2017-11-09T04:12:56.472Z,10.20
2017-11-09T04:15:23.436Z,10.20
2017-11-09T04:17:50.342Z,10.30
2017-11-09T04:20:17.243Z,10.30
2017-11-09T04:22:44.217Z,10.40
2017-11-09T04:25:11.100Z,10.40
2017-11-09T04:27:38.092Z,10.40
2017-11-09T04:30:04.989Z,10.40
2017-11-09T04:32:32.694Z,10.40
2017-11-09T04:34:59.578Z,10.40
2017-11-09T04:37:26.472Z,10.30
2017-11-09T04:39:53.453Z,10.30
2017-11-09T04:42:20.360Z,10.30
2017-11-09T04:44:47.297Z,10.30
2017-11-09T04:47:14.226Z,10.30
2017-11-09T04:49:42.626Z,10.20
2017-11-09T04:52:09.560Z,10.20
2017-11-09T04:54:37.273Z,10.10
2017-11-09T04:57:04.225Z,10.10
2017-11-09T04:59:31.152Z,10.20
2017-11-09T05:01:58.096Z,10.10
2017-11-09T05:04:25.029Z,9.90
2017-11-09T05:06:51.956Z,9.90
2017-11-09T05:09:18.929Z,9.80
2017-11-09T05:11:46.463Z,9.80
2017-11-09T05:14:13.363Z,9.80
2017-11-09T05:16:40.389Z,9.70
2017-11-09T05:19:07.268Z,9.80
2017-11-09T05:21:34.161Z,9.70
2017-11-09T05:24:01.240Z,9.80
2017-11-09T05:26:32.638Z,9.90
2017-11-09T05:29:00.532Z,10.00
2017-11-09T05:31:27.466Z,10.00
2017-11-09T05:33:57.356Z,10.00
2017-11-09T05:36:25.132Z,10.00
2017-11-09T05:38:53.501Z,10.10
2017-11-09T05:41:20.471Z,10.00
2017-11-09T05:43:48.172Z,9.80
2017-11-09T05:46:15.071Z,9.80
2017-11-09T05:48:53.933Z,9.90
2017-11-09T05:51:22.584Z,9.90
2017-11-09T05:53:50.288Z,9.90
2017-11-09T05:56:17.268Z,9.90
2017-11-09T05:58:44.275Z,10.00
2017-11-09T06:01:13.724Z,10.00
2017-11-09T06:03:41.517Z,10.10
2017-11-09T06:06:09.902Z,10.10
2017-11-09T06:08:38.847Z,10.10
2017-11-09T06:11:07.878Z,10.10
2017-11-09T06:13:34.813Z,10.10
2017-11-09T06:16:02.367Z,10.10
2017-11-09T06:18:30.170Z,10.10
2017-11-09T06:20:57.852Z,10.00
2017-11-09T06:23:25.215Z,10.00
2017-11-09T06:25:52.324Z,9.90
2017-11-09T06:28:19.277Z,10.00
2017-11-09T06:30:48.837Z,10.00
2017-11-09T06:33:15.952Z,10.00
2017-11-09T06:35:42.953Z,10.00
2017-11-09T06:38:09.841Z,10.00
2017-11-09T06:40:40.092Z,9.90
2017-11-09T06:43:08.219Z,10.00
2017-11-09T06:45:35.344Z,10.00
2017-11-09T06:48:02.289Z,10.00
2017-11-09T06:50:29.775Z,10.00
2017-11-09T06:52:56.799Z,10.00
2017-11-09T06:55:23.707Z,10.00
2017-11-09T06:57:50.581Z,10.00
2017-11-09T07:00:17.531Z,10.00
2017-11-09T07:02:44.437Z,10.00
2017-11-09T07:05:11.329Z,10.00
2017-11-09T07:07:38.278Z,10.00
2017-11-09T07:10:05.269Z,10.00
2017-11-09T07:12:33.203Z,9.90
2017-11-09T07:15:10.314Z,9.90
2017-11-09T07:17:37.959Z,9.90
2017-11-09T07:20:05.701Z,9.80
2017-11-09T07:22:32.621Z,9.80
2017-11-09T07:24:59.528Z,9.70
2017-11-09T07:27:27.330Z,9.60
2017-11-09T07:29:54.273Z,9.50
2017-11-09T07:32:21.241Z,9.60
2017-11-09T07:34:48.218Z,9.60
2017-11-09T07:37:15.110Z,9.60
2017-11-09T07:39:42.072Z,9.70
2017-11-09T07:42:08.982Z,9.80
2017-11-09T07:44:35.917Z,9.90
2017-11-09T07:47:02.909Z,9.90
2017-11-09T07:49:29.837Z,10.00
2017-11-09T07:51:56.809Z,10.00
2017-11-09T07:54:23.803Z,10.10
2017-11-09T07:56:51.457Z,10.30
2017-11-09T07:59:18.377Z,10.30
2017-11-09T08:01:45.738Z,10.30
2017-11-09T08:04:12.645Z,10.30
2017-11-09T08:06:41.495Z,10.30
2017-11-09T08:09:09.277Z,10.30
2017-11-09T08:11:36.242Z,10.30
2017-11-09T08:14:03.174Z,10.40
2017-11-09T08:16:30.478Z,10.50
2017-11-09T08:18:57.478Z,10.60
2017-11-09T08:21:24.450Z,10.60
2017-11-09T08:23:51.405Z,10.60
2017-11-09T08:26:19.891Z,10.80
2017-11-09T08:28:47.812Z,10.80
2017-11-09T08:31:24.816Z,11.00
2017-11-09T08:33:51.678Z,11.00
2017-11-09T08:36:18.704Z,11.20
2017-11-09T08:38:45.604Z,11.30
2017-11-09T08:41:12.571Z,11.40
2017-11-09T08:43:40.199Z,11.50
2017-11-09T08:46:07.096Z,11.50
2017-11-09T08:48:34.058Z,11.50
2017-11-09T08:51:01.165Z,11.60
2017-11-09T08:53:28.033Z,11.60
2017-11-09T08:55:54.970Z,11.70
2017-11-09T08:58:22.673Z,11.80
2017-11-09T09:00:49.589Z,11.80
2017-11-09T09:03:16.657Z,11.80
2017-11-09T09:05:43.542Z,11.90
2017-11-09T09:08:10.421Z,11.90
2017-11-09T09:10:38.203Z,11.90
2017-11-09T09:13:05.161Z,11.80
2017-11-09T09:15:32.177Z,11.90
2017-11-09T09:18:05.791Z,11.70
2017-11-09T09:20:50.121Z,11.70
2017-11-09T09:23:21.062Z,11.80
2017-11-09T09:25:52.250Z,11.70
2017-11-09T09:28:34.856Z,11.80
2017-11-09T09:31:01.932Z,11.80
2017-11-09T09:33:31.502Z,11.90
2017-11-09T09:36:03.838Z,12.00
2017-11-09T09:38:34.469Z,12.00
2017-11-09T09:41:01.490Z,12.00
2017-11-09T09:43:28.453Z,12.10
2017-11-09T09:45:55.456Z,12.10
2017-11-09T09:48:22.426Z,12.00
2017-11-09T09:50:49.431Z,11.90
2017-11-09T09:53:17.041Z,11.90
2017-11-09T09:55:44.021Z,11.90
2017-11-09T09:58:10.905Z,11.80
2017-11-09T10:00:37.973Z,11.70
2017-11-09T10:03:04.861Z,11.70
2017-11-09T10:05:31.757Z,11.70
2017-11-09T10:07:58.706Z,11.70
2017-11-09T10:10:25.681Z,11.80
2017-11-09T10:12:52.542Z,11.90
2017-11-09T10:15:19.476Z,11.90
2017-11-09T10:17:46.425Z,11.90
2017-11-09T10:20:13.382Z,12.00
2017-11-09T10:22:40.329Z,12.10
2017-11-09T10:25:07.321Z,12.00
2017-11-09T10:27:34.269Z,12.10
2017-11-09T10:30:01.150Z,12.10
2017-11-09T10:32:30.130Z,12.10
2017-11-09T10:34:57.022Z,12.10
2017-11-09T10:37:24.021Z,12.10
2017-11-09T10:39:50.877Z,12.10
2017-11-09T10:42:17.837Z,12.00
2017-11-09T10:44:44.737Z,12.00
2017-11-09T10:47:11.700Z,12.10
2017-11-09T10:49:38.607Z,12.10
2017-11-09T10:52:06.901Z,12.20
2017-11-09T10:54:33.930Z,12.20
2017-11-09T10:57:01.588Z,12.30
2017-11-09T10:59:28.584Z,12.30
2017-11-09T11:01:55.545Z,12.30
2017-11-09T11:04:22.526Z,12.40
2017-11-09T11:06:49.538Z,12.30
2017-11-09T11:09:16.496Z,12.30
2017-11-09T11:11:43.350Z,12.20
2017-11-09T11:14:10.292Z,12.10
2017-11-09T11:16:37.185Z,12.10
2017-11-09T11:19:04.146Z,12.00
2017-11-09T11:21:31.021Z,12.00
2017-11-09T11:23:58.004Z,12.00
2017-11-09T11:26:24.944Z,12.00
2017-11-09T11:28:52.651Z,11.90
2017-11-09T11:31:19.626Z,11.90
2017-11-09T11:33:46.491Z,11.90
2017-11-09T11:36:13.482Z,11.70
2017-11-09T11:38:40.345Z,11.70
2017-11-09T11:41:07.308Z,11.60
2017-11-09T11:43:34.172Z,11.60
2017-11-09T11:46:01.164Z,11.60
2017-11-09T11:48:28.148Z,11.50
2017-11-09T11:50:55.027Z,11.50
2017-11-09T11:53:22.016Z,11.40
2017-11-09T11:55:48.918Z,11.30
2017-11-09T11:58:16.644Z,11.20
2017-11-09T12:00:43.609Z,11.20
2017-11-09T12:03:11.381Z,11.20
2017-11-09T12:05:38.343Z,11.20
2017-11-09T12:08:05.207Z,11.20
2017-11-09T12:10:32.165Z,11.20
2017-11-09T12:12:59.063Z,11.20
2017-11-09T12:15:25.987Z,11.20
2017-11-09T12:17:52.945Z,11.20
2017-11-09T12:20:19.857Z,11.10
2017-11-09T12:22:46.841Z,11.10
2017-11-09T12:25:13.710Z,11.00
2017-11-09T12:27:40.592Z,11.00
2017-11-09T12:30:07.600Z,11.00
2017-11-09T12:32:35.238Z,11.10
2017-11-09T12:35:02.191Z,11.00
2017-11-09T12:37:29.071Z,11.00
2017-11-09T12:39:56.029Z,11.00
2017-11-09T12:42:22.941Z,10.90
2017-11-09T12:44:49.945Z,10.90
2017-11-09T12:47:16.898Z,10.90
2017-11-09T12:49:43.885Z,10.80
2017-11-09T12:52:11.557Z,10.90
2017-11-09T12:54:39.193Z,10.90
2017-11-09T12:57:06.108Z,11.00
2017-11-09T12:59:33.186Z,11.10
2017-11-09T13:02:00.203Z,11.20
2017-11-09T13:04:27.125Z,11.30
2017-11-09T13:06:54.258Z,11.50
2017-11-09T13:09:21.291Z,11.50
2017-11-09T13:11:48.669Z,11.60
2017-11-09T13:14:15.718Z,11.70
2017-11-09T13:16:42.764Z,11.80
2017-11-09T13:19:09.901Z,11.80
2017-11-09T13:21:38.038Z,11.90
2017-11-09T13:24:07.997Z,12.00
2017-11-09T13:26:35.939Z,12.20
2017-11-09T13:29:05.403Z,12.20
2017-11-09T13:31:32.448Z,12.10
2017-11-09T13:34:03.653Z,12.20
2017-11-09T13:36:38.915Z,12.20
2017-11-09T13:39:06.763Z,12.30
2017-11-09T13:41:33.712Z,12.40
2017-11-09T13:44:01.346Z,12.40
2017-11-09T13:46:37.284Z,12.50
2017-11-09T13:49:11.419Z,12.40
2017-11-09T13:51:38.373Z,12.40
2017-11-09T13:54:08.036Z,12.30
2017-11-09T13:56:43.718Z,12.30
2017-11-09T13:59:14.095Z,12.20
2017-11-09T14:01:43.054Z,12.00
2017-11-09T14:04:12.247Z,11.90
2017-11-09T14:06:39.195Z,11.90
2017-11-09T14:09:07.164Z,11.80
2017-11-09T14:11:34.179Z,11.80
2017-11-09T14:14:01.550Z,11.80
2017-11-09T14:16:33.769Z,11.80
2017-11-09T14:19:03.790Z,11.60
2017-11-09T14:21:32.319Z,11.50
2017-11-09T14:24:00.546Z,11.50
2017-11-09T14:26:27.504Z,11.60
2017-11-09T14:28:54.526Z,11.50
2017-11-09T14:31:21.429Z,11.60
2017-11-09T14:33:55.387Z,11.60
2017-11-09T14:36:22.906Z,11.60
2017-11-09T14:38:58.364Z,11.60
2017-11-09T14:41:25.712Z,11.50
2017-11-09T14:43:52.644Z,11.50
2017-11-09T14:46:27.521Z,11.50
2017-11-09T14:48:55.702Z,11.50
2017-11-09T14:51:27.723Z,11.50
2017-11-09T14:53:58.476Z,11.50
2017-11-09T14:56:28.081Z,11.40
2017-11-09T15:01:45.409Z,11.30
2017-11-09T15:04:19.510Z,11.20
2017-11-09T15:06:51.579Z,11.20
2017-11-09T15:09:24.708Z,11.20
2017-11-09T15:11:53.048Z,11.10
2017-11-09T15:14:20.266Z,11.10
2017-11-09T15:16:49.118Z,11.10
2017-11-09T15:19:16.133Z,11.00
2017-11-09T15:21:43.048Z,11.00
2017-11-09T15:24:16.439Z,11.00
2017-11-09T15:26:50.982Z,11.00
2017-11-09T15:29:18.015Z,10.90
2017-11-09T15:31:50.103Z,10.90
2017-11-09T15:34:19.088Z,10.90
2017-11-09T15:36:49.920Z,10.90
2017-11-09T15:39:20.361Z,10.90
2017-11-09T15:41:49.483Z,10.80
2017-11-09T15:44:16.741Z,10.80
2017-11-09T15:46:54.844Z,10.80
2017-11-09T15:49:25.081Z,10.80
2017-11-09T15:51:52.751Z,10.80
2017-11-09T15:54:19.669Z,10.80
2017-11-09T15:56:47.560Z,10.80
2017-11-09T15:59:19.406Z,10.70
2017-11-09T16:01:46.424Z,10.70
2017-11-09T16:04:14.124Z,10.70
2017-11-09T16:06:47.184Z,10.70
2017-11-09T16:09:14.838Z,10.70
2017-11-09T16:11:41.902Z,10.70
2017-11-09T16:14:08.966Z,10.70
2017-11-09T16:16:35.886Z,10.70
2017-11-09T16:19:05.413Z,10.70
2017-11-09T16:21:32.455Z,10.70
2017-11-09T16:23:59.692Z,10.70
2017-11-09T16:26:26.793Z,10.70
2017-11-09T16:28:59.682Z,10.60
2017-11-09T16:31:28.991Z,10.70
2017-11-09T16:33:56.172Z,10.70
2017-11-09T16:36:29.456Z,10.70
2017-11-09T16:38:57.402Z,10.70
2017-11-09T16:41:24.755Z,10.70
2017-11-09T16:43:51.799Z,10.70
2017-11-09T16:46:18.719Z,10.60
2017-11-09T16:48:49.560Z,10.60
2017-11-09T16:51:16.770Z,10.60
2017-11-09T16:53:52.492Z,10.60
2017-11-09T16:56:20.822Z,10.50
2017-11-09T16:59:02.507Z,10.50
2017-11-09T17:01:30.024Z,10.40
2017-11-09T17:03:56.971Z,10.40
2017-11-09T17:06:24.069Z,10.40
2017-11-09T17:08:50.962Z,10.40
2017-11-09T17:11:18.877Z,10.40
2017-11-09T17:13:46.498Z,10.40
2017-11-09T17:16:19.429Z,10.40
2017-11-09T17:18:47.269Z,10.40
2017-11-09T17:21:29.396Z,10.40
2017-11-09T17:23:59.388Z,10.40
2017-11-09T17:26:29.773Z,10.40
2017-11-09T17:29:01.688Z,10.50
2017-11-09T17:31:28.859Z,10.40
2017-11-09T17:34:10.592Z,10.40
2017-11-09T17:36:40.930Z,10.30
2017-11-09T17:39:19.442Z,10.30
2017-11-09T17:42:02.066Z,10.30
2017-11-09T17:44:40.491Z,10.30
2017-11-09T17:47:21.230Z,10.20
2017-11-09T17:49:51.631Z,10.30
2017-11-09T17:52:19.375Z,10.30
2017-11-09T17:54:46.270Z,10.30
2017-11-09T17:57:18.403Z,10.30
2017-11-09T17:59:51.403Z,10.30
2017-11-09T18:02:18.349Z,10.30
2017-11-09T18:04:45.236Z,10.30
2017-11-09T18:07:12.174Z,10.30
2017-11-09T18:09:39.071Z,10.20
2017-11-09T18:12:06.855Z,10.30
2017-11-09T18:14:33.737Z,10.20
2017-11-09T18:17:00.668Z,10.20
2017-11-09T18:19:28.368Z,10.10
2017-11-09T18:21:55.284Z,10.10
2017-11-09T18:24:22.260Z,10.10
2017-11-09T18:26:49.222Z,10.10
2017-11-09T18:29:16.201Z,10.10
2017-11-09T18:31:43.143Z,10.10
2017-11-09T18:34:10.909Z,10.00
2017-11-09T18:36:37.980Z,10.00
2017-11-09T18:39:05.014Z,10.00
2017-11-09T18:41:32.056Z,10.00
2017-11-09T18:43:58.999Z,9.90
2017-11-09T18:46:27.762Z,9.90
2017-11-09T18:48:54.851Z,9.90
2017-11-09T18:51:23.218Z,9.70
2017-11-09T18:53:52.731Z,9.70
2017-11-09T18:56:22.452Z,9.60
2017-11-09T18:58:50.036Z,9.60
2017-11-09T19:01:18.301Z,9.50
2017-11-09T19:03:48.005Z,9.50
2017-11-09T19:06:24.918Z,9.50
2017-11-09T19:08:55.375Z,9.50
2017-11-09T19:11:22.588Z,9.60
2017-11-09T19:13:50.930Z,9.60
2017-11-09T19:16:23.345Z,9.60
2017-11-09T19:18:56.901Z,9.40
2017-11-09T19:21:24.912Z,9.40
2017-11-09T19:23:53.237Z,9.40
2017-11-09T19:26:21.670Z,9.40
2017-11-09T19:28:49.833Z,9.30
2017-11-09T19:31:18.291Z,9.40
2017-11-09T19:33:49.081Z,9.40
2017-11-09T19:36:22.047Z,9.40
2017-11-09T19:38:54.243Z,9.40
2017-11-09T19:41:22.292Z,9.50
2017-11-09T19:43:50.215Z,9.50
2017-11-09T19:46:22.111Z,9.40
2017-11-09T19:48:50.891Z,9.40
2017-11-09T19:51:21.246Z,9.50
2017-11-09T19:53:49.290Z,9.40
2017-11-09T19:56:17.985Z,9.50
2017-11-09T19:58:48.814Z,9.50
2017-11-09T20:01:24.253Z,9.50
2017-11-09T20:04:00.006Z,9.60
2017-11-09T20:06:31.510Z,9.60
2017-11-09T20:09:11.613Z,9.70
2017-11-09T20:11:40.301Z,9.70
2017-11-09T20:14:08.754Z,9.70
2017-11-09T20:16:38.747Z,9.70
2017-11-09T20:19:07.723Z,9.70
2017-11-09T20:21:35.247Z,9.80
2017-11-09T20:24:02.724Z,9.90
2017-11-09T20:26:31.293Z,9.80
2017-11-09T20:28:59.634Z,9.80
2017-11-09T20:31:27.882Z,9.90
2017-11-09T20:33:56.673Z,9.90
2017-11-09T20:36:34.562Z,9.80
2017-11-09T20:39:09.570Z,9.80
2017-11-09T20:41:46.745Z,9.80
2017-11-09T20:44:16.790Z,9.90
2017-11-09T20:46:45.230Z,9.80
2017-11-09T20:49:13.016Z,9.70
2017-11-09T20:51:42.695Z,9.80
2017-11-09T20:54:10.766Z,9.80
2017-11-09T20:56:38.701Z,9.80
2017-11-09T20:59:07.509Z,9.80
2017-11-09T21:01:35.705Z,9.80
2017-11-09T21:04:03.851Z,9.90
2017-11-09T21:06:33.041Z,9.90
2017-11-09T21:09:02.612Z,9.80
2017-11-09T21:11:31.623Z,9.90
2017-11-09T21:14:01.244Z,9.80
2017-11-09T21:16:29.525Z,9.80
2017-11-09T21:18:58.325Z,9.80
2017-11-09T21:21:29.567Z,9.80
2017-11-09T21:23:58.374Z,9.70
2017-11-09T21:26:30.362Z,9.60
2017-11-09T21:28:58.587Z,9.60
2017-11-09T21:31:27.413Z,9.50
2017-11-09T21:33:55.326Z,9.40
2017-11-09T21:36:23.946Z,9.50
2017-11-09T21:38:51.825Z,9.50
2017-11-09T21:41:20.837Z,9.50
2017-11-09T21:43:51.233Z,9.50
2017-11-09T21:46:20.104Z,9.40
2017-11-09T21:48:47.831Z,9.50
2017-11-09T21:51:15.826Z,9.50
2017-11-09T21:53:44.094Z,9.50
2017-11-09T21:56:12.300Z,9.40
2017-11-09T21:58:40.848Z,9.40
2017-11-09T22:01:11.318Z,9.40
2017-11-09T22:03:40.360Z,9.40
2017-11-09T22:06:08.121Z,9.30
2017-11-09T22:08:37.583Z,9.30
2017-11-09T22:11:06.199Z,9.30
2017-11-09T22:13:35.593Z,9.20
2017-11-09T22:16:05.100Z,9.20
2017-11-09T22:18:32.659Z,9.20
2017-11-09T22:21:01.683Z,9.20
2017-11-09T22:23:31.009Z,9.20
2017-11-09T22:25:58.898Z,9.10
2017-11-09T22:28:28.224Z,9.10
2017-11-09T22:30:56.326Z,9.10
2017-11-09T22:33:25.075Z,8.90
2017-11-09T22:35:55.407Z,8.80
2017-11-09T22:38:24.545Z,8.80
2017-11-09T22:40:52.679Z,8.80
2017-11-09T22:43:21.212Z,8.80
2017-11-09T22:45:50.759Z,8.90
2017-11-09T22:48:19.760Z,8.80
2017-11-09T22:50:49.090Z,8.90
2017-11-09T22:53:19.018Z,8.90
2017-11-09T22:55:49.670Z,8.80
2017-11-09T22:58:19.197Z,8.80
2017-11-09T23:00:47.581Z,8.80
2017-11-09T23:03:15.904Z,8.80
2017-11-09T23:05:45.375Z,8.70
2017-11-09T23:08:15.174Z,8.60
2017-11-09T23:10:45.402Z,8.60
2017-11-09T23:13:15.295Z,8.50
2017-11-09T23:15:46.471Z,8.50
2017-11-09T23:18:16.348Z,8.40
2017-11-09T23:20:46.228Z,8.40
2017-11-09T23:23:13.124Z,8.40
2017-11-09T23:25:41.700Z,8.40
2017-11-09T23:28:08.729Z,8.40
2017-11-09T23:30:35.682Z,8.30
2017-11-09T23:33:02.527Z,8.30
2017-11-09T23:35:29.474Z,8.30
2017-11-09T23:37:56.397Z,8.20
2017-11-09T23:40:23.321Z,8.20
2017-11-09T23:42:50.201Z,8.20
2017-11-09T23:45:17.077Z,8.20
2017-11-09T23:47:44.016Z,8.10
2017-11-09T23:50:10.903Z,8.00
2017-11-09T23:52:37.802Z,8.00
2017-11-09T23:55:04.781Z,7.90
2017-11-09T23:57:31.720Z,7.90
2017-11-09T23:59:58.605Z,7.90
